sensor_id;sensor_type;location;lat;lon;timestamp;P1;durP1;ratioP1;P2;durP2;ratioP2
47912;SDS011;33676;51.006;17.180;2022-11-15T00:01:22;64.80;;;46.50;;
47912;SDS011;33676;51.006;17.180;2022-11-15T00:03:51;85.00;;;56.60;;
47912;SDS011;33676;51.006;17.180;2022-11-15T00:06:19;88.40;;;60.40;;
47912;SDS011;33676;51.006;17.180;2022-11-15T00:08:48;89.90;;;55.00;;
47912;SDS011;33676;51.006;17.180;2022-11-15T00:11:16;77.70;;;54.30;;
47912;SDS011;33676;51.006;17.180;2022-11-15T00:13:45;67.40;;;46.90;;
47912;SDS011;33676;51.006;17.180;2022-11-15T00:16:13;74.50;;;52.70;;
47912;SDS011;33676;51.006;17.180;2022-11-15T00:18:41;69.30;;;48.30;;
47912;SDS011;33676;51.006;17.180;2022-11-15T00:21:17;66.30;;;46.90;;
47912;SDS011;33676;51.006;17.180;2022-11-15T00:23:46;63.90;;;46.90;;
47912;SDS011;33676;51.006;17.180;2022-11-15T00:26:14;64.20;;;46.70;;
47912;SDS011;33676;51.006;17.180;2022-11-15T00:28:43;71.90;;;51.90;;
47912;SDS011;33676;51.006;17.180;2022-11-15T00:31:13;65.80;;;48.20;;
47912;SDS011;33676;51.006;17.180;2022-11-15T00:33:43;69.80;;;53.60;;
47912;SDS011;33676;51.006;17.180;2022-11-15T00:36:13;71.20;;;50.00;;
47912;SDS011;33676;51.006;17.180;2022-11-15T00:38:41;66.90;;;49.40;;
47912;SDS011;33676;51.006;17.180;2022-11-15T00:41:10;72.60;;;50.40;;
47912;SDS011;33676;51.006;17.180;2022-11-15T00:43:38;66.60;;;48.00;;
47912;SDS011;33676;51.006;17.180;2022-11-15T00:46:08;65.10;;;46.30;;
47912;SDS011;33676;51.006;17.180;2022-11-15T00:48:37;68.60;;;47.20;;
47912;SDS011;33676;51.006;17.180;2022-11-15T00:51:06;60.50;;;43.80;;
47912;SDS011;33676;51.006;17.180;2022-11-15T00:53:34;68.80;;;46.10;;
47912;SDS011;33676;51.006;17.180;2022-11-15T00:56:03;66.50;;;46.70;;
47912;SDS011;33676;51.006;17.180;2022-11-15T00:58:31;69.60;;;45.50;;
47912;SDS011;33676;51.006;17.180;2022-11-15T01:01:11;65.40;;;44.10;;
47912;SDS011;33676;51.006;17.180;2022-11-15T01:03:41;67.60;;;45.50;;
47912;SDS011;33676;51.006;17.180;2022-11-15T01:06:10;67.50;;;44.10;;
47912;SDS011;33676;51.006;17.180;2022-11-15T01:08:39;67.70;;;45.50;;
47912;SDS011;33676;51.006;17.180;2022-11-15T01:11:10;63.20;;;43.30;;
47912;SDS011;33676;51.006;17.180;2022-11-15T01:13:40;61.10;;;43.30;;
47912;SDS011;33676;51.006;17.180;2022-11-15T01:16:10;66.20;;;45.30;;
47912;SDS011;33676;51.006;17.180;2022-11-15T01:18:41;58.00;;;38.30;;
47912;SDS011;33676;51.006;17.180;2022-11-15T01:21:11;55.70;;;42.10;;
47912;SDS011;33676;51.006;17.180;2022-11-15T01:23:42;70.30;;;46.80;;
47912;SDS011;33676;51.006;17.180;2022-11-15T01:26:13;62.40;;;39.90;;
47912;SDS011;33676;51.006;17.180;2022-11-15T01:28:42;68.60;;;46.40;;
47912;SDS011;33676;51.006;17.180;2022-11-15T01:31:14;65.20;;;43.60;;
47912;SDS011;33676;51.006;17.180;2022-11-15T01:33:45;61.90;;;42.70;;
47912;SDS011;33676;51.006;17.180;2022-11-15T01:36:17;56.30;;;38.40;;
47912;SDS011;33676;51.006;17.180;2022-11-15T01:38:54;56.50;;;41.20;;
47912;SDS011;33676;51.006;17.180;2022-11-15T01:41:26;74.40;;;48.50;;
47912;SDS011;33676;51.006;17.180;2022-11-15T01:47:16;58.60;;;38.90;;
47912;SDS011;33676;51.006;17.180;2022-11-15T01:52:33;56.40;;;39.70;;
47912;SDS011;33676;51.006;17.180;2022-11-15T01:55:12;51.70;;;39.00;;
47912;SDS011;33676;51.006;17.180;2022-11-15T01:57:49;59.00;;;39.80;;
47912;SDS011;33676;51.006;17.180;2022-11-15T02:00:21;51.20;;;36.30;;
47912;SDS011;33676;51.006;17.180;2022-11-15T02:02:49;54.70;;;37.90;;
47912;SDS011;33676;51.006;17.180;2022-11-15T02:13:50;55.10;;;37.40;;
47912;SDS011;33676;51.006;17.180;2022-11-15T02:22:29;52.60;;;35.90;;
47912;SDS011;33676;51.006;17.180;2022-11-15T02:43:09;46.50;;;36.20;;
47912;SDS011;33676;51.006;17.180;2022-11-15T02:49:33;45.20;;;32.70;;
47912;SDS011;33676;51.006;17.180;2022-11-15T02:52:05;52.30;;;38.10;;
47912;SDS011;33676;51.006;17.180;2022-11-15T02:54:34;51.70;;;38.00;;
47912;SDS011;33676;51.006;17.180;2022-11-15T02:57:15;54.60;;;39.20;;
47912;SDS011;33676;51.006;17.180;2022-11-15T02:59:56;50.00;;;37.80;;
47912;SDS011;33676;51.006;17.180;2022-11-15T03:08:36;56.10;;;37.60;;
47912;SDS011;33676;51.006;17.180;2022-11-15T03:11:17;58.50;;;39.50;;
47912;SDS011;33676;51.006;17.180;2022-11-15T03:14:16;51.90;;;38.20;;
47912;SDS011;33676;51.006;17.180;2022-11-15T03:16:58;57.00;;;42.20;;
47912;SDS011;33676;51.006;17.180;2022-11-15T03:19:53;51.20;;;36.00;;
47912;SDS011;33676;51.006;17.180;2022-11-15T03:22:24;49.60;;;38.40;;
47912;SDS011;33676;51.006;17.180;2022-11-15T03:24:58;53.30;;;36.70;;
47912;SDS011;33676;51.006;17.180;2022-11-15T03:27:33;55.50;;;38.60;;
47912;SDS011;33676;51.006;17.180;2022-11-15T03:30:07;49.20;;;37.30;;
47912;SDS011;33676;51.006;17.180;2022-11-15T03:32:41;49.30;;;37.60;;
47912;SDS011;33676;51.006;17.180;2022-11-15T03:35:18;50.30;;;36.10;;
47912;SDS011;33676;51.006;17.180;2022-11-15T03:40:45;49.70;;;36.80;;
47912;SDS011;33676;51.006;17.180;2022-11-15T03:43:41;52.80;;;38.30;;
47912;SDS011;33676;51.006;17.180;2022-11-15T03:46:24;50.00;;;36.50;;
47912;SDS011;33676;51.006;17.180;2022-11-15T03:49:04;50.80;;;34.70;;
47912;SDS011;33676;51.006;17.180;2022-11-15T03:51:37;44.90;;;34.40;;
47912;SDS011;33676;51.006;17.180;2022-11-15T03:54:06;47.70;;;35.40;;
47912;SDS011;33676;51.006;17.180;2022-11-15T03:56:34;44.10;;;32.60;;
47912;SDS011;33676;51.006;17.180;2022-11-15T03:59:03;43.10;;;32.70;;
47912;SDS011;33676;51.006;17.180;2022-11-15T04:01:31;49.10;;;34.70;;
47912;SDS011;33676;51.006;17.180;2022-11-15T04:04:00;47.50;;;36.10;;
47912;SDS011;33676;51.006;17.180;2022-11-15T04:06:28;50.70;;;35.10;;
47912;SDS011;33676;51.006;17.180;2022-11-15T04:08:57;47.70;;;34.20;;
47912;SDS011;33676;51.006;17.180;2022-11-15T04:11:25;51.60;;;37.20;;
47912;SDS011;33676;51.006;17.180;2022-11-15T04:13:53;45.40;;;33.20;;
47912;SDS011;33676;51.006;17.180;2022-11-15T04:16:22;43.90;;;34.10;;
47912;SDS011;33676;51.006;17.180;2022-11-15T04:18:50;48.10;;;37.10;;
47912;SDS011;33676;51.006;17.180;2022-11-15T04:21:38;44.60;;;33.80;;
47912;SDS011;33676;51.006;17.180;2022-11-15T04:24:25;46.80;;;34.70;;
47912;SDS011;33676;51.006;17.180;2022-11-15T04:26:54;47.00;;;34.20;;
47912;SDS011;33676;51.006;17.180;2022-11-15T04:29:22;48.10;;;35.00;;
47912;SDS011;33676;51.006;17.180;2022-11-15T04:32:04;53.20;;;38.00;;
47912;SDS011;33676;51.006;17.180;2022-11-15T04:34:34;49.90;;;37.00;;
47912;SDS011;33676;51.006;17.180;2022-11-15T04:37:03;55.60;;;38.40;;
47912;SDS011;33676;51.006;17.180;2022-11-15T04:39:40;55.60;;;36.20;;
47912;SDS011;33676;51.006;17.180;2022-11-15T04:42:10;55.10;;;37.60;;
47912;SDS011;33676;51.006;17.180;2022-11-15T04:44:39;49.90;;;35.10;;
47912;SDS011;33676;51.006;17.180;2022-11-15T04:47:07;45.80;;;33.00;;
47912;SDS011;33676;51.006;17.180;2022-11-15T04:49:36;43.50;;;34.50;;
47912;SDS011;33676;51.006;17.180;2022-11-15T04:52:04;46.60;;;34.40;;
47912;SDS011;33676;51.006;17.180;2022-11-15T04:54:32;45.50;;;31.40;;
47912;SDS011;33676;51.006;17.180;2022-11-15T04:57:01;49.30;;;31.50;;
47912;SDS011;33676;51.006;17.180;2022-11-15T04:59:29;46.60;;;33.70;;
47912;SDS011;33676;51.006;17.180;2022-11-15T05:01:57;58.60;;;39.00;;
47912;SDS011;33676;51.006;17.180;2022-11-15T05:04:26;59.50;;;35.50;;
47912;SDS011;33676;51.006;17.180;2022-11-15T05:06:54;43.40;;;32.60;;
47912;SDS011;33676;51.006;17.180;2022-11-15T05:09:23;49.60;;;34.60;;
47912;SDS011;33676;51.006;17.180;2022-11-15T05:11:51;48.80;;;34.40;;
47912;SDS011;33676;51.006;17.180;2022-11-15T05:14:19;45.50;;;32.40;;
47912;SDS011;33676;51.006;17.180;2022-11-15T05:16:48;47.70;;;32.00;;
47912;SDS011;33676;51.006;17.180;2022-11-15T05:19:17;47.50;;;35.60;;
47912;SDS011;33676;51.006;17.180;2022-11-15T05:21:45;46.00;;;31.50;;
47912;SDS011;33676;51.006;17.180;2022-11-15T05:24:15;49.90;;;32.30;;
47912;SDS011;33676;51.006;17.180;2022-11-15T05:26:43;52.60;;;35.60;;
47912;SDS011;33676;51.006;17.180;2022-11-15T05:29:11;43.70;;;32.30;;
47912;SDS011;33676;51.006;17.180;2022-11-15T05:31:40;42.20;;;31.30;;
47912;SDS011;33676;51.006;17.180;2022-11-15T05:34:09;44.70;;;33.30;;
47912;SDS011;33676;51.006;17.180;2022-11-15T05:36:41;45.20;;;32.90;;
47912;SDS011;33676;51.006;17.180;2022-11-15T05:39:10;51.80;;;35.20;;
47912;SDS011;33676;51.006;17.180;2022-11-15T05:41:41;42.40;;;31.40;;
47912;SDS011;33676;51.006;17.180;2022-11-15T05:44:15;42.00;;;30.10;;
47912;SDS011;33676;51.006;17.180;2022-11-15T05:46:46;42.50;;;31.50;;
47912;SDS011;33676;51.006;17.180;2022-11-15T05:49:18;48.30;;;31.40;;
47912;SDS011;33676;51.006;17.180;2022-11-15T05:51:50;42.90;;;31.20;;
47912;SDS011;33676;51.006;17.180;2022-11-15T05:54:20;48.60;;;33.80;;
47912;SDS011;33676;51.006;17.180;2022-11-15T05:56:51;46.50;;;32.70;;
47912;SDS011;33676;51.006;17.180;2022-11-15T05:59:20;46.40;;;32.80;;
47912;SDS011;33676;51.006;17.180;2022-11-15T06:01:49;45.50;;;35.60;;
47912;SDS011;33676;51.006;17.180;2022-11-15T06:04:18;48.20;;;34.60;;
47912;SDS011;33676;51.006;17.180;2022-11-15T06:06:46;46.80;;;34.00;;
47912;SDS011;33676;51.006;17.180;2022-11-15T06:09:14;47.90;;;35.40;;
47912;SDS011;33676;51.006;17.180;2022-11-15T06:11:43;50.60;;;34.50;;
47912;SDS011;33676;51.006;17.180;2022-11-15T06:14:11;49.10;;;36.20;;
47912;SDS011;33676;51.006;17.180;2022-11-15T06:16:39;46.20;;;32.60;;
47912;SDS011;33676;51.006;17.180;2022-11-15T06:19:08;46.70;;;31.60;;
47912;SDS011;33676;51.006;17.180;2022-11-15T06:21:36;47.60;;;34.20;;
47912;SDS011;33676;51.006;17.180;2022-11-15T06:24:05;45.40;;;34.40;;
47912;SDS011;33676;51.006;17.180;2022-11-15T06:26:34;47.50;;;33.90;;
47912;SDS011;33676;51.006;17.180;2022-11-15T06:29:03;45.30;;;32.90;;
47912;SDS011;33676;51.006;17.180;2022-11-15T06:31:33;44.60;;;32.10;;
47912;SDS011;33676;51.006;17.180;2022-11-15T06:34:02;47.90;;;32.90;;
47912;SDS011;33676;51.006;17.180;2022-11-15T06:36:31;44.30;;;31.80;;
47912;SDS011;33676;51.006;17.180;2022-11-15T06:39:05;46.50;;;32.70;;
47912;SDS011;33676;51.006;17.180;2022-11-15T06:41:34;46.30;;;32.70;;
47912;SDS011;33676;51.006;17.180;2022-11-15T06:44:03;48.90;;;33.20;;
47912;SDS011;33676;51.006;17.180;2022-11-15T06:46:32;48.60;;;33.90;;
47912;SDS011;33676;51.006;17.180;2022-11-15T06:49:00;49.80;;;34.90;;
47912;SDS011;33676;51.006;17.180;2022-11-15T06:51:36;41.60;;;31.20;;
47912;SDS011;33676;51.006;17.180;2022-11-15T06:54:05;45.50;;;32.00;;
47912;SDS011;33676;51.006;17.180;2022-11-15T06:56:33;47.60;;;32.60;;
47912;SDS011;33676;51.006;17.180;2022-11-15T06:59:02;55.40;;;36.80;;
47912;SDS011;33676;51.006;17.180;2022-11-15T07:01:30;52.40;;;37.10;;
47912;SDS011;33676;51.006;17.180;2022-11-15T07:03:58;59.30;;;38.30;;
47912;SDS011;33676;51.006;17.180;2022-11-15T07:06:27;48.10;;;37.20;;
47912;SDS011;33676;51.006;17.180;2022-11-15T07:08:55;62.00;;;41.90;;
47912;SDS011;33676;51.006;17.180;2022-11-15T07:11:24;54.10;;;38.10;;
47912;SDS011;33676;51.006;17.180;2022-11-15T07:13:52;57.60;;;39.20;;
47912;SDS011;33676;51.006;17.180;2022-11-15T07:16:20;55.00;;;41.00;;
47912;SDS011;33676;51.006;17.180;2022-11-15T07:18:49;57.60;;;42.70;;
47912;SDS011;33676;51.006;17.180;2022-11-15T07:21:17;51.10;;;40.70;;
47912;SDS011;33676;51.006;17.180;2022-11-15T07:23:50;56.80;;;39.50;;
47912;SDS011;33676;51.006;17.180;2022-11-15T07:26:19;55.50;;;42.50;;
47912;SDS011;33676;51.006;17.180;2022-11-15T07:28:47;51.50;;;39.70;;
47912;SDS011;33676;51.006;17.180;2022-11-15T07:31:16;59.20;;;37.70;;
47912;SDS011;33676;51.006;17.180;2022-11-15T07:33:44;55.30;;;39.40;;
47912;SDS011;33676;51.006;17.180;2022-11-15T07:36:13;48.70;;;36.50;;
47912;SDS011;33676;51.006;17.180;2022-11-15T07:38:41;56.00;;;37.00;;
47912;SDS011;33676;51.006;17.180;2022-11-15T07:41:10;48.80;;;37.90;;
47912;SDS011;33676;51.006;17.180;2022-11-15T07:43:38;48.60;;;36.60;;
47912;SDS011;33676;51.006;17.180;2022-11-15T07:46:08;47.10;;;36.00;;
47912;SDS011;33676;51.006;17.180;2022-11-15T07:48:38;47.90;;;36.00;;
47912;SDS011;33676;51.006;17.180;2022-11-15T07:51:15;44.50;;;34.40;;
47912;SDS011;33676;51.006;17.180;2022-11-15T07:53:44;49.50;;;34.40;;
47912;SDS011;33676;51.006;17.180;2022-11-15T07:56:13;48.80;;;34.60;;
47912;SDS011;33676;51.006;17.180;2022-11-15T07:58:41;43.40;;;34.50;;
47912;SDS011;33676;51.006;17.180;2022-11-15T08:01:10;46.70;;;35.30;;
47912;SDS011;33676;51.006;17.180;2022-11-15T08:03:39;53.30;;;38.90;;
47912;SDS011;33676;51.006;17.180;2022-11-15T08:06:07;51.60;;;38.60;;
47912;SDS011;33676;51.006;17.180;2022-11-15T08:08:35;49.70;;;38.60;;
47912;SDS011;33676;51.006;17.180;2022-11-15T08:11:04;51.20;;;35.30;;
47912;SDS011;33676;51.006;17.180;2022-11-15T08:13:32;49.80;;;35.40;;
47912;SDS011;33676;51.006;17.180;2022-11-15T08:16:02;55.60;;;37.70;;
47912;SDS011;33676;51.006;17.180;2022-11-15T08:18:34;49.90;;;37.30;;
47912;SDS011;33676;51.006;17.180;2022-11-15T08:21:03;49.30;;;37.30;;
47912;SDS011;33676;51.006;17.180;2022-11-15T08:23:31;47.80;;;36.00;;
47912;SDS011;33676;51.006;17.180;2022-11-15T08:26:05;48.70;;;38.50;;
47912;SDS011;33676;51.006;17.180;2022-11-15T08:28:33;53.70;;;39.30;;
47912;SDS011;33676;51.006;17.180;2022-11-15T08:31:02;45.00;;;37.10;;
47912;SDS011;33676;51.006;17.180;2022-11-15T08:33:33;44.10;;;36.30;;
47912;SDS011;33676;51.006;17.180;2022-11-15T08:36:04;53.70;;;40.30;;
47912;SDS011;33676;51.006;17.180;2022-11-15T08:38:33;46.40;;;34.40;;
47912;SDS011;33676;51.006;17.180;2022-11-15T08:41:03;49.60;;;37.10;;
47912;SDS011;33676;51.006;17.180;2022-11-15T08:43:34;45.50;;;36.30;;
47912;SDS011;33676;51.006;17.180;2022-11-15T08:46:02;44.40;;;34.40;;
47912;SDS011;33676;51.006;17.180;2022-11-15T08:48:31;48.60;;;38.10;;
47912;SDS011;33676;51.006;17.180;2022-11-15T08:51:00;45.70;;;35.10;;
47912;SDS011;33676;51.006;17.180;2022-11-15T08:53:28;48.30;;;38.20;;
47912;SDS011;33676;51.006;17.180;2022-11-15T08:55:56;47.10;;;37.60;;
47912;SDS011;33676;51.006;17.180;2022-11-15T08:58:25;40.40;;;33.80;;
47912;SDS011;33676;51.006;17.180;2022-11-15T09:00:53;45.20;;;34.70;;
47912;SDS011;33676;51.006;17.180;2022-11-15T09:03:24;39.60;;;34.10;;
47912;SDS011;33676;51.006;17.180;2022-11-15T09:05:57;39.30;;;33.20;;
47912;SDS011;33676;51.006;17.180;2022-11-15T09:08:29;45.40;;;33.40;;
47912;SDS011;33676;51.006;17.180;2022-11-15T09:11:14;42.20;;;33.80;;
47912;SDS011;33676;51.006;17.180;2022-11-15T09:13:46;36.80;;;32.40;;
47912;SDS011;33676;51.006;17.180;2022-11-15T09:16:14;36.80;;;29.90;;
47912;SDS011;33676;51.006;17.180;2022-11-15T09:18:43;40.10;;;30.80;;
47912;SDS011;33676;51.006;17.180;2022-11-15T09:21:12;41.50;;;32.20;;
47912;SDS011;33676;51.006;17.180;2022-11-15T09:23:40;37.70;;;31.50;;
47912;SDS011;33676;51.006;17.180;2022-11-15T09:26:09;36.40;;;31.40;;
47912;SDS011;33676;51.006;17.180;2022-11-15T09:28:38;37.10;;;30.60;;
47912;SDS011;33676;51.006;17.180;2022-11-15T09:31:09;37.40;;;32.10;;
47912;SDS011;33676;51.006;17.180;2022-11-15T09:33:38;35.60;;;30.10;;
47912;SDS011;33676;51.006;17.180;2022-11-15T09:36:07;37.70;;;30.00;;
47912;SDS011;33676;51.006;17.180;2022-11-15T09:38:37;35.40;;;29.90;;
47912;SDS011;33676;51.006;17.180;2022-11-15T09:47:38;29.70;;;26.60;;
47912;SDS011;33676;51.006;17.180;2022-11-15T09:50:31;26.20;;;23.20;;
47912;SDS011;33676;51.006;17.180;2022-11-15T09:53:04;26.20;;;23.30;;
47912;SDS011;33676;51.006;17.180;2022-11-15T09:55:44;29.50;;;23.80;;
47912;SDS011;33676;51.006;17.180;2022-11-15T10:04:32;23.80;;;21.10;;
47912;SDS011;33676;51.006;17.180;2022-11-15T10:09:52;23.70;;;20.80;;
47912;SDS011;33676;51.006;17.180;2022-11-15T10:12:44;22.60;;;20.40;;
47912;SDS011;33676;51.006;17.180;2022-11-15T10:15:18;21.20;;;19.10;;
47912;SDS011;33676;51.006;17.180;2022-11-15T10:17:56;22.20;;;20.10;;
47912;SDS011;33676;51.006;17.180;2022-11-15T10:20:53;23.70;;;21.30;;
47912;SDS011;33676;51.006;17.180;2022-11-15T10:23:27;20.80;;;18.60;;
47912;SDS011;33676;51.006;17.180;2022-11-15T10:25:58;20.90;;;18.70;;
47912;SDS011;33676;51.006;17.180;2022-11-15T10:37:45;21.40;;;19.20;;
47912;SDS011;33676;51.006;17.180;2022-11-15T10:40:22;22.00;;;19.70;;
47912;SDS011;33676;51.006;17.180;2022-11-15T10:45:39;22.30;;;20.20;;
47912;SDS011;33676;51.006;17.180;2022-11-15T10:50:44;21.20;;;19.00;;
47912;SDS011;33676;51.006;17.180;2022-11-15T10:56:00;21.70;;;19.30;;
47912;SDS011;33676;51.006;17.180;2022-11-15T11:01:16;24.10;;;21.50;;
47912;SDS011;33676;51.006;17.180;2022-11-15T11:06:47;18.50;;;16.60;;
47912;SDS011;33676;51.006;17.180;2022-11-15T11:12:05;19.80;;;17.50;;
47912;SDS011;33676;51.006;17.180;2022-11-15T11:14:38;20.10;;;18.10;;
47912;SDS011;33676;51.006;17.180;2022-11-15T11:20:20;17.40;;;15.80;;
47912;SDS011;33676;51.006;17.180;2022-11-15T11:31:54;15.60;;;14.10;;
47912;SDS011;33676;51.006;17.180;2022-11-15T11:37:49;15.40;;;13.90;;
47912;SDS011;33676;51.006;17.180;2022-11-15T11:52:28;15.10;;;13.60;;
47912;SDS011;33676;51.006;17.180;2022-11-15T11:55:15;15.60;;;14.10;;
47912;SDS011;33676;51.006;17.180;2022-11-15T12:00:27;14.40;;;13.00;;
47912;SDS011;33676;51.006;17.180;2022-11-15T12:05:50;15.40;;;13.90;;
47912;SDS011;33676;51.006;17.180;2022-11-15T12:14:21;14.90;;;13.50;;
47912;SDS011;33676;51.006;17.180;2022-11-15T12:16:55;15.80;;;14.20;;
47912;SDS011;33676;51.006;17.180;2022-11-15T12:19:25;16.30;;;14.60;;
47912;SDS011;33676;51.006;17.180;2022-11-15T12:22:18;17.00;;;15.40;;
47912;SDS011;33676;51.006;17.180;2022-11-15T12:25:02;16.20;;;14.50;;
47912;SDS011;33676;51.006;17.180;2022-11-15T12:27:56;15.20;;;13.90;;
47912;SDS011;33676;51.006;17.180;2022-11-15T12:30:44;17.20;;;15.60;;
47912;SDS011;33676;51.006;17.180;2022-11-15T12:33:31;19.00;;;17.20;;
47912;SDS011;33676;51.006;17.180;2022-11-15T12:36:51;16.80;;;15.20;;
47912;SDS011;33676;51.006;17.180;2022-11-15T12:39:06;19.00;;;17.10;;
47912;SDS011;33676;51.006;17.180;2022-11-15T12:41:44;21.30;;;19.40;;
47912;SDS011;33676;51.006;17.180;2022-11-15T12:47:02;20.40;;;17.20;;
47912;SDS011;33676;51.006;17.180;2022-11-15T12:49:50;17.70;;;15.70;;
47912;SDS011;33676;51.006;17.180;2022-11-15T12:52:19;17.10;;;15.30;;
47912;SDS011;33676;51.006;17.180;2022-11-15T12:54:51;16.10;;;14.40;;
47912;SDS011;33676;51.006;17.180;2022-11-15T13:03:16;16.90;;;15.00;;
47912;SDS011;33676;51.006;17.180;2022-11-15T13:05:53;14.80;;;13.40;;
47912;SDS011;33676;51.006;17.180;2022-11-15T13:08:46;13.90;;;12.60;;
47912;SDS011;33676;51.006;17.180;2022-11-15T13:20:23;12.60;;;11.50;;
47912;SDS011;33676;51.006;17.180;2022-11-15T13:23:07;14.50;;;13.10;;
47912;SDS011;33676;51.006;17.180;2022-11-15T13:25:54;12.40;;;11.30;;
47912;SDS011;33676;51.006;17.180;2022-11-15T13:31:37;13.70;;;12.40;;
47912;SDS011;33676;51.006;17.180;2022-11-15T13:34:24;12.70;;;11.50;;
47912;SDS011;33676;51.006;17.180;2022-11-15T13:39:49;16.30;;;12.40;;
47912;SDS011;33676;51.006;17.180;2022-11-15T13:42:19;13.70;;;12.30;;
47912;SDS011;33676;51.006;17.180;2022-11-15T13:45:03;16.40;;;14.80;;
47912;SDS011;33676;51.006;17.180;2022-11-15T13:47:33;14.90;;;13.50;;
47912;SDS011;33676;51.006;17.180;2022-11-15T13:50:02;15.80;;;14.40;;
47912;SDS011;33676;51.006;17.180;2022-11-15T13:52:40;15.60;;;14.10;;
47912;SDS011;33676;51.006;17.180;2022-11-15T13:55:18;14.60;;;13.20;;
47912;SDS011;33676;51.006;17.180;2022-11-15T13:57:58;15.60;;;13.60;;
47912;SDS011;33676;51.006;17.180;2022-11-15T14:00:43;15.00;;;13.40;;
47912;SDS011;33676;51.006;17.180;2022-11-15T14:03:19;17.10;;;14.90;;
47912;SDS011;33676;51.006;17.180;2022-11-15T14:09:04;15.00;;;13.50;;
47912;SDS011;33676;51.006;17.180;2022-11-15T14:11:54;14.60;;;13.20;;
47912;SDS011;33676;51.006;17.180;2022-11-15T14:14:26;16.10;;;14.00;;
47912;SDS011;33676;51.006;17.180;2022-11-15T14:17:00;16.50;;;12.70;;
47912;SDS011;33676;51.006;17.180;2022-11-15T14:25:17;16.50;;;13.40;;
47912;SDS011;33676;51.006;17.180;2022-11-15T14:30:59;13.30;;;11.90;;
47912;SDS011;33676;51.006;17.180;2022-11-15T14:33:33;15.20;;;13.70;;
47912;SDS011;33676;51.006;17.180;2022-11-15T14:36:06;16.50;;;12.90;;
47912;SDS011;33676;51.006;17.180;2022-11-15T14:38:38;13.50;;;12.20;;
47912;SDS011;33676;51.006;17.180;2022-11-15T14:41:17;17.50;;;13.90;;
47912;SDS011;33676;51.006;17.180;2022-11-15T14:43:51;16.30;;;13.20;;
47912;SDS011;33676;51.006;17.180;2022-11-15T14:46:20;15.70;;;14.00;;
47912;SDS011;33676;51.006;17.180;2022-11-15T14:48:49;14.00;;;12.50;;
47912;SDS011;33676;51.006;17.180;2022-11-15T14:51:17;17.00;;;14.70;;
47912;SDS011;33676;51.006;17.180;2022-11-15T14:53:47;15.40;;;14.00;;
47912;SDS011;33676;51.006;17.180;2022-11-15T14:56:15;16.40;;;14.70;;
47912;SDS011;33676;51.006;17.180;2022-11-15T14:58:44;18.00;;;14.70;;
47912;SDS011;33676;51.006;17.180;2022-11-15T15:01:21;17.20;;;14.20;;
47912;SDS011;33676;51.006;17.180;2022-11-15T15:03:53;17.00;;;15.30;;
47912;SDS011;33676;51.006;17.180;2022-11-15T15:06:26;17.70;;;15.80;;
47912;SDS011;33676;51.006;17.180;2022-11-15T15:08:54;16.90;;;15.30;;
47912;SDS011;33676;51.006;17.180;2022-11-15T15:11:25;18.70;;;16.50;;
47912;SDS011;33676;51.006;17.180;2022-11-15T15:13:56;21.90;;;17.30;;
47912;SDS011;33676;51.006;17.180;2022-11-15T15:16:26;22.50;;;17.80;;
47912;SDS011;33676;51.006;17.180;2022-11-15T15:18:55;21.50;;;17.70;;
47912;SDS011;33676;51.006;17.180;2022-11-15T15:21:25;21.50;;;19.30;;
47912;SDS011;33676;51.006;17.180;2022-11-15T15:24:04;23.60;;;20.50;;
47912;SDS011;33676;51.006;17.180;2022-11-15T15:26:33;23.80;;;20.50;;
47912;SDS011;33676;51.006;17.180;2022-11-15T15:29:04;25.80;;;20.90;;
47912;SDS011;33676;51.006;17.180;2022-11-15T15:31:32;31.20;;;20.70;;
47912;SDS011;33676;51.006;17.180;2022-11-15T15:34:01;27.50;;;20.00;;
47912;SDS011;33676;51.006;17.180;2022-11-15T15:36:30;30.30;;;23.30;;
47912;SDS011;33676;51.006;17.180;2022-11-15T15:38:58;29.80;;;24.30;;
47912;SDS011;33676;51.006;17.180;2022-11-15T15:41:26;27.50;;;24.50;;
47912;SDS011;33676;51.006;17.180;2022-11-15T15:43:55;31.30;;;24.20;;
47912;SDS011;33676;51.006;17.180;2022-11-15T15:46:23;35.60;;;28.40;;
47912;SDS011;33676;51.006;17.180;2022-11-15T15:48:52;34.60;;;30.00;;
47912;SDS011;33676;51.006;17.180;2022-11-15T15:51:20;44.90;;;34.50;;
47912;SDS011;33676;51.006;17.180;2022-11-15T15:53:49;45.00;;;33.70;;
47912;SDS011;33676;51.006;17.180;2022-11-15T15:56:19;40.90;;;34.20;;
47912;SDS011;33676;51.006;17.180;2022-11-15T15:58:47;48.40;;;37.50;;
47912;SDS011;33676;51.006;17.180;2022-11-15T16:01:16;46.90;;;39.30;;
47912;SDS011;33676;51.006;17.180;2022-11-15T16:03:44;42.60;;;33.40;;
47912;SDS011;33676;51.006;17.180;2022-11-15T16:06:32;44.30;;;36.40;;
47912;SDS011;33676;51.006;17.180;2022-11-15T16:09:08;39.40;;;33.70;;
47912;SDS011;33676;51.006;17.180;2022-11-15T16:11:45;41.50;;;32.40;;
47912;SDS011;33676;51.006;17.180;2022-11-15T16:14:14;35.70;;;30.90;;
47912;SDS011;33676;51.006;17.180;2022-11-15T16:16:42;39.30;;;31.30;;
47912;SDS011;33676;51.006;17.180;2022-11-15T16:19:11;47.00;;;37.00;;
47912;SDS011;33676;51.006;17.180;2022-11-15T16:21:40;47.60;;;38.60;;
47912;SDS011;33676;51.006;17.180;2022-11-15T16:24:08;48.50;;;37.70;;
47912;SDS011;33676;51.006;17.180;2022-11-15T16:26:37;52.80;;;38.80;;
47912;SDS011;33676;51.006;17.180;2022-11-15T16:29:07;48.70;;;36.80;;
47912;SDS011;33676;51.006;17.180;2022-11-15T16:31:38;56.20;;;36.90;;
47912;SDS011;33676;51.006;17.180;2022-11-15T16:34:08;54.80;;;42.70;;
47912;SDS011;33676;51.006;17.180;2022-11-15T16:36:36;58.70;;;43.10;;
47912;SDS011;33676;51.006;17.180;2022-11-15T16:39:05;53.10;;;42.20;;
47912;SDS011;33676;51.006;17.180;2022-11-15T16:41:33;58.60;;;42.20;;
47912;SDS011;33676;51.006;17.180;2022-11-15T16:44:02;52.00;;;40.20;;
47912;SDS011;33676;51.006;17.180;2022-11-15T16:46:30;41.70;;;34.80;;
47912;SDS011;33676;51.006;17.180;2022-11-15T16:48:58;41.20;;;31.80;;
47912;SDS011;33676;51.006;17.180;2022-11-15T16:51:27;38.30;;;29.90;;
47912;SDS011;33676;51.006;17.180;2022-11-15T16:53:55;44.20;;;30.50;;
47912;SDS011;33676;51.006;17.180;2022-11-15T16:56:27;34.30;;;29.80;;
47912;SDS011;33676;51.006;17.180;2022-11-15T16:58:58;33.40;;;28.20;;
47912;SDS011;33676;51.006;17.180;2022-11-15T17:01:30;31.90;;;26.50;;
47912;SDS011;33676;51.006;17.180;2022-11-15T17:04:01;29.30;;;26.10;;
47912;SDS011;33676;51.006;17.180;2022-11-15T17:06:41;35.80;;;28.20;;
47912;SDS011;33676;51.006;17.180;2022-11-15T17:09:17;32.40;;;27.00;;
47912;SDS011;33676;51.006;17.180;2022-11-15T17:11:47;34.30;;;27.00;;
47912;SDS011;33676;51.006;17.180;2022-11-15T17:14:16;33.70;;;24.70;;
47912;SDS011;33676;51.006;17.180;2022-11-15T17:16:47;35.10;;;26.30;;
47912;SDS011;33676;51.006;17.180;2022-11-15T17:19:19;31.90;;;25.80;;
47912;SDS011;33676;51.006;17.180;2022-11-15T17:21:48;32.20;;;25.40;;
47912;SDS011;33676;51.006;17.180;2022-11-15T17:24:17;33.50;;;27.70;;